Center Line, Michigan
Current Conditions -  °F | °C
As of 4:53 AM on Wednesday 26 Nov 2014 (Local Time) from KDET Reporting Station
Overcast Overcast  
Wind Chill: 29°   Ceiling: 2300
Heat Index: 33°   Visibility: 10mi
Dew Point: 21°   Wind: 5mph
Humidity: 61%   Direction: 360°N
Pressure: 30.19"   Gusts: NA
Location:  42.48°N, 83.03°W
Report Text: KDET 260953Z 36004KT 10SM OVC023 01/M06 A3019 RMK AO2 SLP230 T00061061
Loading
Personal Weather Stations






























Interactive Weather Map New forecast layout! Learn more

10-Day Weather Forecast

Advertisements
Track Severe Weather on mobile